createdAt,value
2019-04-21T00:00:15.122Z,1024.99
2019-04-21T00:01:12.093Z,1024.99
2019-04-21T00:02:03.777Z,1024.99
2019-04-21T00:03:23.202Z,1024.99
2019-04-21T00:04:38.044Z,1024.9
2019-04-21T00:05:57.546Z,1024.9
2019-04-21T00:07:03.042Z,1024.9
2019-04-21T00:07:42.350Z,1024.9
2019-04-21T00:12:46.755Z,1024.76
2019-04-21T00:14:39.561Z,1024.76
2019-04-21T00:15:33.607Z,1024.76
2019-04-21T00:16:14.064Z,1024.73
2019-04-21T00:17:17.308Z,1024.73
2019-04-21T00:18:10.520Z,1024.73
2019-04-21T00:19:20.700Z,1024.73
2019-04-21T00:20:30.968Z,1024.67
2019-04-21T00:21:29.245Z,1024.67
2019-04-21T00:22:40.505Z,1024.67
2019-04-21T00:23:42.475Z,1024.67
2019-04-21T00:24:34.980Z,1024.66
2019-04-21T00:25:41.610Z,1024.66
2019-04-21T00:26:45.283Z,1024.66
2019-04-21T00:27:51.401Z,1024.66
2019-04-21T00:29:03.973Z,1024.64
2019-04-21T00:29:47.830Z,1024.64
2019-04-21T00:30:53.183Z,1024.64
2019-04-21T00:31:42.044Z,1024.64
2019-04-21T00:32:39.312Z,1024.81
2019-04-21T00:33:22.972Z,1024.81
2019-04-21T00:34:02.969Z,1024.81
2019-04-21T00:35:15.923Z,1024.81
2019-04-21T00:36:22.694Z,1024.73
2019-04-21T00:37:24.232Z,1024.73
2019-04-21T00:39:14.563Z,1024.73
2019-04-21T00:42:55.628Z,1024.57
2019-04-21T00:43:44.735Z,1024.57
2019-04-21T00:44:38.111Z,1024.48
2019-04-21T00:45:42.231Z,1024.48
2019-04-21T00:46:37.460Z,1024.48
2019-04-21T00:47:51.125Z,1024.48
2019-04-21T00:49:57.839Z,1024.43
2019-04-21T00:51:20.807Z,1024.43
2019-04-21T00:52:14.420Z,1024.43
2019-04-21T00:53:23.125Z,1024.33
2019-04-21T00:54:15.184Z,1024.33
2019-04-21T00:56:03.586Z,1024.33
2019-04-21T00:56:34.382Z,1024.23
2019-04-21T00:58:11.939Z,1024.23
2019-04-21T00:58:37.269Z,1024.23
2019-04-21T01:00:58.095Z,1024.2
2019-04-21T01:02:02.488Z,1024.2
2019-04-21T01:03:00.950Z,1024.2
2019-04-21T01:04:04.774Z,1024.2
2019-04-21T01:07:05.301Z,1024.17
2019-04-21T01:08:47.390Z,1024.24
2019-04-21T01:09:46.341Z,1024.24
2019-04-21T01:10:28.781Z,1024.24
2019-04-21T01:14:05.570Z,1024.14
2019-04-21T01:15:18.345Z,1024.14
2019-04-21T01:15:53.014Z,1024.14
2019-04-21T01:17:51.668Z,1024.03
2019-04-21T01:19:46.425Z,1024.03
2019-04-21T01:20:18.217Z,1024.03
2019-04-21T01:21:14.662Z,1024.03
2019-04-21T01:22:02.498Z,1024.03
2019-04-21T01:23:04.379Z,1024.03
2019-04-21T01:24:18.872Z,1023.89
2019-04-21T01:25:25.831Z,1023.89
2019-04-21T01:26:39.067Z,1023.89
2019-04-21T01:27:33.618Z,1023.91
2019-04-21T01:28:49.515Z,1023.91
2019-04-21T01:29:59.801Z,1023.91
2019-04-21T01:30:44.866Z,1023.91
2019-04-21T01:31:42.405Z,1023.94
2019-04-21T01:33:07.607Z,1023.94
2019-04-21T01:35:54.992Z,1023.84
2019-04-21T01:36:49.811Z,1023.84
2019-04-21T01:40:02.536Z,1023.8
2019-04-21T01:40:56.779Z,1023.8
2019-04-21T01:42:00.053Z,1023.8
2019-04-21T01:43:42.520Z,1023.74
2019-04-21T01:44:59.467Z,1023.74
2019-04-21T01:46:45.592Z,1023.74
2019-04-21T01:47:46.305Z,1023.74
2019-04-21T01:48:51.801Z,1023.74
2019-04-21T01:49:29.499Z,1023.74
2019-04-21T01:50:45.140Z,1023.74
2019-04-21T01:51:45.426Z,1023.7
2019-04-21T01:52:38.351Z,1023.7
2019-04-21T01:56:24.404Z,1023.68
2019-04-21T01:57:25.947Z,1023.68
2019-04-21T01:58:34.065Z,1023.68
2019-04-21T01:59:33.180Z,1023.67
2019-04-21T02:00:38.979Z,1023.67
2019-04-21T02:02:59.468Z,1023.67
2019-04-21T02:03:46.985Z,1023.57
2019-04-21T02:05:13.648Z,1023.57
2019-04-21T02:06:57.345Z,1023.57
2019-04-21T02:07:54.689Z,1023.56
2019-04-21T02:09:52.320Z,1023.56
2019-04-21T02:10:59.952Z,1023.56
2019-04-21T02:15:06.324Z,1023.43
2019-04-21T02:16:06.484Z,1023.52
2019-04-21T02:16:54.193Z,1023.52
2019-04-21T02:18:54.419Z,1023.52
2019-04-21T02:19:43.389Z,1023.5
2019-04-21T02:20:36.947Z,1023.5
2019-04-21T02:21:40.759Z,1023.5
2019-04-21T02:23:10.325Z,1023.5
2019-04-21T02:24:11.909Z,1023.49
2019-04-21T02:28:03.745Z,1023.41
2019-04-21T02:29:10.130Z,1023.41
2019-04-21T02:31:26.610Z,1023.41
2019-04-21T02:32:28.657Z,1023.41
2019-04-21T02:32:44.284Z,1023.41
2019-04-21T02:35:40.323Z,1023.41
2019-04-21T02:36:35.923Z,1023.32
2019-04-21T02:37:51.188Z,1023.32
2019-04-21T02:38:39.794Z,1023.32
2019-04-21T02:39:40.733Z,1023.32
2019-04-21T02:40:04.664Z,1023.18
2019-04-21T02:41:51.743Z,1023.18
2019-04-21T02:43:25.045Z,1023.18
2019-04-21T02:44:15.973Z,1023.19
2019-04-21T02:45:33.816Z,1023.19
2019-04-21T02:46:33.404Z,1023.19
2019-04-21T02:47:24.026Z,1023.19
2019-04-21T02:49:22.837Z,1023.13
2019-04-21T02:50:28.415Z,1023.13
2019-04-21T02:50:43.372Z,1023.13
2019-04-21T02:52:31.905Z,1023.14
2019-04-21T02:53:30.550Z,1023.14
2019-04-21T02:55:11.316Z,1023.14
2019-04-21T02:57:23.334Z,1023.03
2019-04-21T02:58:29.425Z,1023.03
2019-04-21T02:58:52.928Z,1023.03
2019-04-21T03:01:23.498Z,1022.96
2019-04-21T03:01:50.345Z,1022.96
2019-04-21T03:03:34.364Z,1022.96
2019-04-21T03:06:28.997Z,1022.87
2019-04-21T03:07:44.299Z,1022.87
2019-04-21T03:09:32.222Z,1022.79
2019-04-21T03:10:46.323Z,1022.79
2019-04-21T03:12:20.178Z,1022.8
2019-04-21T03:12:45.825Z,1022.8
2019-04-21T03:14:40.835Z,1022.8
2019-04-21T03:15:45.096Z,1022.71
2019-04-21T03:16:26.525Z,1022.71
2019-04-21T03:17:21.777Z,1022.71
2019-04-21T03:18:24.419Z,1022.71
2019-04-21T03:21:22.306Z,1022.63
2019-04-21T03:22:24.388Z,1022.63
2019-04-21T03:23:42.789Z,1022.65
2019-04-21T03:24:31.452Z,1022.65
2019-04-21T03:25:36.429Z,1022.65
2019-04-21T03:26:56.044Z,1022.65
2019-04-21T03:27:03.511Z,1022.57
2019-04-21T03:28:30.171Z,1022.57
2019-04-21T03:28:43.498Z,1022.57
2019-04-21T03:32:28.524Z,1022.48
2019-04-21T03:36:33.219Z,1022.63
2019-04-21T03:37:43.616Z,1022.63
2019-04-21T03:37:48.062Z,1022.63
2019-04-21T03:39:07.715Z,1022.49
2019-04-21T03:40:26.199Z,1022.49
2019-04-21T03:43:34.814Z,1022.39
2019-04-21T03:43:46.467Z,1022.39
2019-04-21T03:46:35.776Z,1022.39
2019-04-21T03:47:24.906Z,1022.33
2019-04-21T03:49:39.037Z,1022.33
2019-04-21T03:50:29.681Z,1022.33
2019-04-21T03:51:35.949Z,1022.47
2019-04-21T03:52:53.319Z,1022.47
2019-04-21T03:56:05.997Z,1022.38
2019-04-21T03:57:58.045Z,1022.38
2019-04-21T03:58:54.235Z,1022.41
2019-04-21T03:58:54.396Z,1022.38
2019-04-21T04:00:46.273Z,1022.41
2019-04-21T04:01:11.394Z,1022.41
2019-04-21T04:03:13.408Z,1022.38
2019-04-21T04:04:15.996Z,1022.38
2019-04-21T04:05:49.555Z,1022.38
2019-04-21T04:09:01.490Z,1022.36
2019-04-21T04:10:22.888Z,1022.36
2019-04-21T04:11:37.749Z,1022.24
2019-04-21T04:14:33.497Z,1022.24
2019-04-21T04:15:38.705Z,1022.31
2019-04-21T04:16:38.037Z,1022.31
2019-04-21T04:17:11.681Z,1022.31
2019-04-21T04:18:57.829Z,1022.14
2019-04-21T04:21:30.405Z,1022.14
2019-04-21T04:22:00.152Z,1022.14
2019-04-21T04:24:34.233Z,1022.15
2019-04-21T04:25:34.983Z,1022.15
2019-04-21T04:27:36.935Z,1022.14
2019-04-21T04:28:49.920Z,1022.14
2019-04-21T04:29:12.160Z,1022.14
2019-04-21T04:29:51.348Z,1022.14
2019-04-21T04:31:35.367Z,1022.16
2019-04-21T04:34:18.778Z,1022.16
2019-04-21T04:35:48.975Z,1022.2
2019-04-21T04:36:58.556Z,1022.2
2019-04-21T04:38:43.913Z,1022.2
2019-04-21T04:39:42.693Z,1021.97
2019-04-21T04:40:31.464Z,1021.97
2019-04-21T04:41:28.875Z,1021.97
2019-04-21T04:44:11.526Z,1022.03
2019-04-21T04:45:56.465Z,1022.03
2019-04-21T04:46:30.489Z,1022.03
2019-04-21T04:49:59.348Z,1022.08
2019-04-21T04:51:33.451Z,1022.1
2019-04-21T04:52:33.640Z,1022.1
2019-04-21T04:53:31.017Z,1022.1
2019-04-21T04:54:28.633Z,1022.1
2019-04-21T04:55:33.672Z,1022.21
2019-04-21T04:56:18.192Z,1022.21
2019-04-21T04:57:22.175Z,1022.21
2019-04-21T05:00:15.458Z,1022.09
2019-04-21T05:01:48.564Z,1022.09
2019-04-21T05:01:51.469Z,1022.22
2019-04-21T05:04:51.979Z,1022.22
2019-04-21T05:07:37.639Z,1022.11
2019-04-21T05:09:31.592Z,1022.11
2019-04-21T05:11:39.559Z,1022.06
2019-04-21T05:12:07.768Z,1022.06
2019-04-21T05:14:25.114Z,1022.12
2019-04-21T05:15:19.290Z,1022.12
2019-04-21T05:16:22.062Z,1022.12
2019-04-21T05:16:46.715Z,1022.12
2019-04-21T05:19:20.902Z,1022.18
2019-04-21T05:20:24.264Z,1022.18
2019-04-21T05:21:24.481Z,1022.18
2019-04-21T05:23:55.898Z,1021.92
2019-04-21T05:24:50.962Z,1021.92
2019-04-21T05:25:48.075Z,1022
2019-04-21T05:27:47.220Z,1022
2019-04-21T05:28:41.937Z,1022
2019-04-21T05:29:49.155Z,1022.05
2019-04-21T05:30:36.326Z,1022.05
2019-04-21T05:32:03.503Z,1022.05
2019-04-21T05:34:01.736Z,1022.06
2019-04-21T05:35:26.596Z,1022.06
2019-04-21T05:36:52.055Z,1022.06
2019-04-21T05:37:31.672Z,1021.95
2019-04-21T05:38:43.623Z,1021.95
2019-04-21T05:39:51.034Z,1021.95
2019-04-21T05:40:44.862Z,1021.95
2019-04-21T05:41:31.294Z,1022.03
2019-04-21T05:42:44.186Z,1022.03
2019-04-21T05:43:56.523Z,1022.03
2019-04-21T05:45:17.429Z,1022.03
2019-04-21T05:45:34.832Z,1021.98
2019-04-21T05:48:35.091Z,1021.98
2019-04-21T05:50:45.739Z,1022
2019-04-21T05:51:52.887Z,1022
2019-04-21T05:52:40.770Z,1022
2019-04-21T05:54:14.765Z,1022.03
2019-04-21T05:56:03.615Z,1022.03
2019-04-21T05:56:59.825Z,1022.03
2019-04-21T05:59:26.272Z,1021.98
2019-04-21T06:01:32.846Z,1021.98
2019-04-21T06:02:03.098Z,1022.04
2019-04-21T06:03:11.812Z,1022.04
2019-04-21T06:04:07.688Z,1022.04
2019-04-21T06:05:39.163Z,1022.04
2019-04-21T06:06:20.439Z,1022.05
2019-04-21T06:07:34.712Z,1022.05
2019-04-21T06:08:53.972Z,1022.05
2019-04-21T06:10:00.001Z,1021.91
2019-04-21T06:11:08.547Z,1021.91
2019-04-21T06:14:10.861Z,1021.95
2019-04-21T06:16:07.365Z,1021.95
2019-04-21T06:17:01.486Z,1021.95
2019-04-21T06:18:13.878Z,1021.97
2019-04-21T06:19:05.036Z,1021.97
2019-04-21T06:20:03.040Z,1021.97
2019-04-21T06:21:05.344Z,1021.97
2019-04-21T06:22:46.321Z,1022.03
2019-04-21T06:23:57.061Z,1022.03
2019-04-21T06:26:44.928Z,1021.99
2019-04-21T06:27:27.505Z,1021.99
2019-04-21T06:27:59.582Z,1021.99
2019-04-21T06:28:50.441Z,1021.99
2019-04-21T06:29:58.950Z,1021.96
2019-04-21T06:31:14.316Z,1021.96
2019-04-21T06:32:45.437Z,1021.96
2019-04-21T06:33:57.600Z,1022.01
2019-04-21T06:35:19.472Z,1022.01
2019-04-21T06:36:49.559Z,1021.93
2019-04-21T06:38:26.572Z,1021.93
2019-04-21T06:41:34.967Z,1021.98
2019-04-21T06:42:51.664Z,1021.98
2019-04-21T06:44:57.531Z,1022.04
2019-04-21T06:47:06.402Z,1022.04
2019-04-21T06:48:04.247Z,1022.04
2019-04-21T06:48:59.618Z,1022.01
2019-04-21T06:50:00.491Z,1022.01
2019-04-21T06:52:50.957Z,1021.92
2019-04-21T06:54:10.211Z,1021.92
2019-04-21T06:56:05.018Z,1021.92
2019-04-21T06:57:03.298Z,1022.02
2019-04-21T06:58:02.183Z,1022.02
2019-04-21T06:59:06.058Z,1022.02
2019-04-21T06:59:55.733Z,1022.02
2019-04-21T07:00:55.897Z,1022.01
2019-04-21T07:02:24.337Z,1022.01
2019-04-21T07:03:19.405Z,1022.01
2019-04-21T07:04:56.105Z,1021.99
2019-04-21T07:06:07.826Z,1021.99
2019-04-21T07:06:56.973Z,1021.99
2019-04-21T07:08:16.925Z,1021.99
2019-04-21T07:09:16.036Z,1022.07
2019-04-21T07:10:05.177Z,1022.07
2019-04-21T07:14:54.667Z,1021.98
2019-04-21T07:16:12.275Z,1021.98
2019-04-21T07:17:11.538Z,1021.99
2019-04-21T07:19:33.316Z,1021.99
2019-04-21T07:20:07.274Z,1021.99
2019-04-21T07:21:00.183Z,1022.09
2019-04-21T07:21:51.037Z,1022.09
2019-04-21T07:22:58.358Z,1022.09
2019-04-21T07:23:33.715Z,1022.09
2019-04-21T07:25:07.386Z,1022.14
2019-04-21T07:25:35.121Z,1022.14
2019-04-21T07:30:13.139Z,1022.06
2019-04-21T07:31:11.190Z,1022.06
2019-04-21T07:32:04.388Z,1022.06
2019-04-21T07:32:49.714Z,1022.05
2019-04-21T07:33:49.094Z,1022.05
2019-04-21T07:35:57.869Z,1022.05
2019-04-21T07:37:00.991Z,1022.13
2019-04-21T07:38:55.380Z,1022.13
2019-04-21T07:39:46.592Z,1022.13
2019-04-21T07:40:38.923Z,1022.07
2019-04-21T07:41:18.625Z,1022.07
2019-04-21T07:42:42.890Z,1022.07
2019-04-21T07:43:39.688Z,1022.07
2019-04-21T07:44:40.854Z,1021.9
2019-04-21T07:45:35.158Z,1021.9
2019-04-21T07:46:39.535Z,1021.9
2019-04-21T07:48:27.466Z,1022.01
2019-04-21T07:50:00.876Z,1022.01
2019-04-21T07:50:57.771Z,1022.01
2019-04-21T07:51:59.204Z,1022.01
2019-04-21T07:53:01.124Z,1022.03
2019-04-21T07:54:13.497Z,1022.03
2019-04-21T07:56:24.492Z,1021.93
2019-04-21T07:57:39.715Z,1021.93
2019-04-21T07:59:02.078Z,1021.93
2019-04-21T07:59:41.115Z,1021.93
2019-04-21T08:01:04.397Z,1021.97
2019-04-21T08:04:52.790Z,1021.94
2019-04-21T08:07:51.918Z,1021.94
2019-04-21T08:09:06.265Z,1022
2019-04-21T08:09:47.274Z,1022
2019-04-21T08:10:50.931Z,1022
2019-04-21T08:11:28.167Z,1022
2019-04-21T08:12:42.977Z,1021.98
2019-04-21T08:15:07.715Z,1021.98
2019-04-21T08:16:58.951Z,1021.97
2019-04-21T08:22:09.426Z,1021.99
2019-04-21T08:22:48.136Z,1021.99
2019-04-21T08:24:56.200Z,1022.05
2019-04-21T08:27:02.651Z,1022.05
2019-04-21T08:29:13.199Z,1021.83
2019-04-21T08:29:38.043Z,1021.83
2019-04-21T08:30:55.339Z,1021.83
2019-04-21T08:33:18.765Z,1021.89
2019-04-21T08:36:28.127Z,1021.84
2019-04-21T08:37:49.553Z,1021.84
2019-04-21T08:38:54.003Z,1021.84
2019-04-21T08:40:10.519Z,1021.86
2019-04-21T08:41:56.160Z,1021.86
2019-04-21T08:42:52.042Z,1021.86
2019-04-21T08:43:56.136Z,1021.9
2019-04-21T08:45:07.365Z,1021.9
2019-04-21T08:45:30.774Z,1021.9
2019-04-21T08:46:58.834Z,1021.9
2019-04-21T08:48:55.423Z,1021.78
2019-04-21T08:50:03.495Z,1021.78
2019-04-21T08:52:03.786Z,1021.71
2019-04-21T08:52:50.887Z,1021.71
2019-04-21T08:55:05.150Z,1021.71
2019-04-21T08:56:12.311Z,1021.66
2019-04-21T08:58:22.734Z,1021.66
2019-04-21T09:03:59.865Z,1021.6
2019-04-21T09:04:55.601Z,1021.6
2019-04-21T09:08:00.333Z,1021.65
2019-04-21T09:10:52.865Z,1021.65
2019-04-21T09:13:44.572Z,1021.61
2019-04-21T09:15:52.445Z,1021.55
2019-04-21T09:16:42.628Z,1021.55
2019-04-21T09:17:41.113Z,1021.55
2019-04-21T09:18:42.087Z,1021.55
2019-04-21T09:20:09.686Z,1021.52
2019-04-21T09:21:54.603Z,1021.52
2019-04-21T09:22:50.916Z,1021.52
2019-04-21T09:24:00.597Z,1021.39
2019-04-21T09:24:55.928Z,1021.39
2019-04-21T09:28:42.370Z,1021.33
2019-04-21T09:29:26.536Z,1021.33
2019-04-21T09:30:08.849Z,1021.33
2019-04-21T09:31:08.643Z,1021.27
2019-04-21T09:32:15.553Z,1021.27
2019-04-21T09:33:07.374Z,1021.27
2019-04-21T09:34:08.953Z,1021.27
2019-04-21T09:35:12.888Z,1021.3
2019-04-21T09:36:14.354Z,1021.3
2019-04-21T09:37:28.707Z,1021.3
2019-04-21T09:38:29.934Z,1021.3
2019-04-21T09:39:18.409Z,1021.26
2019-04-21T09:40:04.878Z,1021.26
2019-04-21T09:41:06.673Z,1021.26
2019-04-21T09:42:06.634Z,1021.26
2019-04-21T09:43:12.986Z,1021.14
2019-04-21T09:44:08.760Z,1021.14
2019-04-21T09:45:10.033Z,1021.14
2019-04-21T09:46:02.262Z,1021.14
2019-04-21T09:47:08.749Z,1021.28
2019-04-21T09:48:15.580Z,1021.28
2019-04-21T09:49:12.182Z,1021.28
2019-04-21T09:50:06.648Z,1021.28
2019-04-21T09:51:02.276Z,1021.08
2019-04-21T09:52:08.963Z,1021.08
2019-04-21T09:53:26.874Z,1021.08
2019-04-21T09:54:20.678Z,1021.08
2019-04-21T09:55:17.336Z,1021.05
2019-04-21T09:56:14.809Z,1021.05
2019-04-21T09:57:20.567Z,1021.05
2019-04-21T09:58:26.403Z,1021.05
2019-04-21T09:59:23.733Z,1020.96
2019-04-21T10:00:19.481Z,1020.96
2019-04-21T10:01:28.694Z,1020.96
2019-04-21T10:02:20.091Z,1020.91
2019-04-21T10:03:13.915Z,1020.91
2019-04-21T10:04:05.979Z,1020.91
2019-04-21T10:05:02.350Z,1020.91
2019-04-21T10:06:02.582Z,1020.92
2019-04-21T10:07:02.794Z,1020.92
2019-04-21T10:08:03.960Z,1020.92
2019-04-21T10:09:10.222Z,1020.92
2019-04-21T10:10:01.846Z,1020.79
2019-04-21T10:11:05.300Z,1020.79
2019-04-21T10:12:03.468Z,1020.79
2019-04-21T10:13:03.256Z,1020.79
2019-04-21T10:14:05.191Z,1020.86
2019-04-21T10:15:02.407Z,1020.86
2019-04-21T10:16:03.432Z,1020.86
2019-04-21T10:17:04.686Z,1020.86
2019-04-21T10:18:03.107Z,1020.77
2019-04-21T10:19:02.920Z,1020.77
2019-04-21T10:20:05.176Z,1020.77
2019-04-21T10:21:01.752Z,1020.77
2019-04-21T10:22:05.939Z,1020.71
2019-04-21T10:23:03.327Z,1020.71
2019-04-21T10:24:02.462Z,1020.71
2019-04-21T10:25:04.642Z,1020.71
2019-04-21T10:26:01.927Z,1020.54
2019-04-21T10:27:08.565Z,1020.54
2019-04-21T10:28:03.130Z,1020.54
2019-04-21T10:29:19.735Z,1020.54
2019-04-21T10:30:04.064Z,1020.62
2019-04-21T10:31:03.049Z,1020.62
2019-04-21T10:32:01.869Z,1020.62
2019-04-21T10:33:02.035Z,1020.62
2019-04-21T10:34:03.486Z,1020.55
2019-04-21T10:35:03.608Z,1020.55
2019-04-21T10:36:02.752Z,1020.55
2019-04-21T10:37:03.213Z,1020.55
2019-04-21T10:38:28.237Z,1020.57
2019-04-21T10:39:04.085Z,1020.57
2019-04-21T10:40:03.861Z,1020.57
2019-04-21T10:41:03.931Z,1020.57
2019-04-21T10:42:01.983Z,1020.42
2019-04-21T10:43:02.144Z,1020.42
2019-04-21T10:44:03.465Z,1020.42
2019-04-21T10:45:05.083Z,1020.42
2019-04-21T10:46:01.863Z,1020.35
2019-04-21T10:47:03.033Z,1020.35
2019-04-21T10:48:03.453Z,1020.35
2019-04-21T10:49:02.489Z,1020.35
2019-04-21T10:50:04.476Z,1020.39
2019-04-21T10:51:03.624Z,1020.39
2019-04-21T10:52:02.258Z,1020.39
2019-04-21T10:53:03.354Z,1020.39
2019-04-21T10:54:02.322Z,1020.36
2019-04-21T10:55:50.323Z,1020.36
2019-04-21T10:56:25.099Z,1020.36
2019-04-21T10:57:02.401Z,1020.36
2019-04-21T10:58:02.694Z,1020.25
2019-04-21T10:59:02.909Z,1020.25
2019-04-21T11:00:10.780Z,1020.25
2019-04-21T11:01:02.333Z,1020.25
2019-04-21T11:02:03.505Z,1020.19
2019-04-21T11:03:02.756Z,1020.19
2019-04-21T11:04:06.711Z,1020.19
2019-04-21T11:05:04.720Z,1020.19
2019-04-21T11:06:03.725Z,1020.12
2019-04-21T11:07:14.037Z,1020.12
2019-04-21T11:08:27.960Z,1020.12
2019-04-21T11:09:07.262Z,1020.12
2019-04-21T11:10:04.477Z,1020.17
2019-04-21T11:11:04.077Z,1020.17
2019-04-21T11:12:03.988Z,1020.17
2019-04-21T11:13:03.276Z,1020.17
2019-04-21T11:14:02.858Z,1020.11
2019-04-21T11:15:05.336Z,1020.11
2019-04-21T11:16:01.831Z,1020.11
2019-04-21T11:17:02.025Z,1020.11
2019-04-21T11:18:02.239Z,1020.11
2019-04-21T11:19:02.385Z,1020.11
2019-04-21T11:20:02.369Z,1020.11
2019-04-21T11:21:04.827Z,1020.11
2019-04-21T11:22:03.300Z,1020
2019-04-21T11:23:02.200Z,1020
2019-04-21T11:24:02.333Z,1020
2019-04-21T11:25:03.424Z,1020
2019-04-21T11:26:04.260Z,1020.01
2019-04-21T11:27:02.419Z,1020.01
2019-04-21T11:28:03.320Z,1020.01
2019-04-21T11:29:03.534Z,1020.01
2019-04-21T11:30:02.689Z,1019.82
2019-04-21T11:31:03.017Z,1019.82
2019-04-21T11:32:03.341Z,1019.82
2019-04-21T11:33:03.911Z,1019.82
2019-04-21T11:34:03.379Z,1019.94
2019-04-21T11:35:03.679Z,1019.94
2019-04-21T11:36:01.854Z,1019.94
2019-04-21T11:37:02.378Z,1019.94
2019-04-21T11:38:18.974Z,1019.82
2019-04-21T11:39:31.718Z,1019.82
2019-04-21T11:40:14.396Z,1019.82
2019-04-21T11:41:01.904Z,1019.82
2019-04-21T11:42:02.061Z,1019.79
2019-04-21T11:43:02.281Z,1019.79
2019-04-21T11:44:05.271Z,1019.79
2019-04-21T11:45:03.862Z,1019.84
2019-04-21T11:46:04.398Z,1019.84
2019-04-21T11:47:02.951Z,1019.84
2019-04-21T11:48:02.442Z,1019.84
2019-04-21T11:49:04.032Z,1019.62
2019-04-21T11:50:03.707Z,1019.62
2019-04-21T11:51:01.896Z,1019.62
2019-04-21T11:52:03.281Z,1019.62
2019-04-21T11:53:05.237Z,1019.62
2019-04-21T11:54:02.599Z,1019.62
2019-04-21T11:55:03.093Z,1019.62
2019-04-21T11:56:03.163Z,1019.62
2019-04-21T11:57:22.067Z,1019.6
2019-04-21T11:58:03.879Z,1019.6
2019-04-21T11:59:02.050Z,1019.6
2019-04-21T12:00:04.295Z,1019.6
2019-04-21T12:01:03.869Z,1019.56
2019-04-21T12:02:01.866Z,1019.56
2019-04-21T12:03:01.979Z,1019.56
2019-04-21T12:04:03.713Z,1019.56
2019-04-21T12:05:03.898Z,1019.5
2019-04-21T12:06:04.015Z,1019.5
2019-04-21T12:07:02.275Z,1019.5
2019-04-21T12:08:02.475Z,1019.5
2019-04-21T12:09:06.529Z,1019.47
2019-04-21T12:10:03.704Z,1019.47
2019-04-21T12:11:04.010Z,1019.47
2019-04-21T12:12:03.292Z,1019.47
2019-04-21T12:13:07.371Z,1019.36
2019-04-21T12:14:01.932Z,1019.36
2019-04-21T12:15:02.297Z,1019.36
2019-04-21T12:16:03.553Z,1019.36
2019-04-21T12:17:03.045Z,1019.45
2019-04-21T12:18:02.085Z,1019.45
2019-04-21T12:19:03.361Z,1019.45
2019-04-21T12:20:03.619Z,1019.45
2019-04-21T12:21:05.216Z,1019.37
2019-04-21T12:22:21.662Z,1019.37
2019-04-21T12:23:02.877Z,1019.37
2019-04-21T12:24:03.100Z,1019.37
2019-04-21T12:25:03.374Z,1019.19
2019-04-21T12:26:03.507Z,1019.19
2019-04-21T12:27:02.718Z,1019.19
2019-04-21T12:28:02.052Z,1019.19
2019-04-21T12:29:02.237Z,1019.23
2019-04-21T12:30:03.831Z,1019.23
2019-04-21T12:31:03.697Z,1019.23
2019-04-21T12:32:03.512Z,1019.23
2019-04-21T12:33:02.698Z,1019.29
2019-04-21T12:34:03.575Z,1019.29
2019-04-21T12:35:04.160Z,1019.29
2019-04-21T12:36:02.309Z,1019.29
2019-04-21T12:37:02.050Z,1019.07
2019-04-21T12:38:03.160Z,1019.07
2019-04-21T12:39:08.645Z,1019.07
2019-04-21T12:40:03.633Z,1019.07
2019-04-21T12:41:02.772Z,1018.97
2019-04-21T12:42:02.997Z,1018.97
2019-04-21T12:43:03.423Z,1018.97
2019-04-21T12:44:02.985Z,1018.97
2019-04-21T12:45:03.478Z,1018.97
2019-04-21T12:46:02.678Z,1018.97
2019-04-21T12:47:03.606Z,1018.97
2019-04-21T12:48:04.561Z,1018.97
2019-04-21T12:49:02.620Z,1018.92
2019-04-21T12:50:04.503Z,1018.92
2019-04-21T12:51:03.769Z,1018.92
2019-04-21T12:52:04.112Z,1018.92
2019-04-21T12:53:03.202Z,1018.9
2019-04-21T12:54:03.667Z,1018.9
2019-04-21T12:55:03.720Z,1018.9
2019-04-21T12:56:02.582Z,1018.9
2019-04-21T12:57:03.820Z,1018.75
2019-04-21T12:58:01.789Z,1018.75
2019-04-21T12:59:02.094Z,1018.75
2019-04-21T13:00:05.131Z,1018.75
2019-04-21T13:01:03.354Z,1018.77
2019-04-21T13:02:03.623Z,1018.77
2019-04-21T13:03:04.002Z,1018.77
2019-04-21T13:04:02.230Z,1018.77
2019-04-21T13:05:03.868Z,1018.62
2019-04-21T13:06:03.770Z,1018.62
2019-04-21T13:07:04.016Z,1018.62
2019-04-21T13:08:04.238Z,1018.62
2019-04-21T13:09:12.420Z,1018.49
2019-04-21T13:10:04.272Z,1018.49
2019-04-21T13:11:04.368Z,1018.49
2019-04-21T13:12:02.617Z,1018.49
2019-04-21T13:13:02.103Z,1018.44
2019-04-21T13:14:02.288Z,1018.44
2019-04-21T13:15:04.506Z,1018.44
2019-04-21T13:16:03.615Z,1018.44
2019-04-21T13:17:01.843Z,1018.39
2019-04-21T13:18:04.534Z,1018.39
2019-04-21T13:19:02.939Z,1018.39
2019-04-21T13:20:03.806Z,1018.39
2019-04-21T13:21:05.917Z,1018.41
2019-04-21T13:22:04.199Z,1018.41
2019-04-21T13:23:02.218Z,1018.41
2019-04-21T13:24:03.462Z,1018.41
2019-04-21T13:25:02.848Z,1018.17
2019-04-21T13:26:06.193Z,1018.17
2019-04-21T13:27:07.004Z,1018.17
2019-04-21T13:28:03.321Z,1018.16
2019-04-21T13:29:03.081Z,1018.16
2019-04-21T13:30:02.633Z,1018.16
2019-04-21T13:31:02.648Z,1018.16
2019-04-21T13:32:06.844Z,1018.11
2019-04-21T13:33:03.413Z,1018.11
2019-04-21T13:34:04.066Z,1018.11
2019-04-21T13:35:05.256Z,1018.11
2019-04-21T13:36:04.814Z,1018.13
2019-04-21T13:37:03.506Z,1018.13
2019-04-21T13:38:04.568Z,1018.13
2019-04-21T13:40:09.767Z,1018.13
2019-04-21T13:40:31.170Z,1017.96
2019-04-21T13:41:36.514Z,1017.96
2019-04-21T13:42:25.901Z,1017.96
2019-04-21T13:43:08.284Z,1017.96
2019-04-21T13:44:03.655Z,1018.03
2019-04-21T13:45:06.032Z,1018.03
2019-04-21T13:46:04.174Z,1018.03
2019-04-21T13:47:03.069Z,1018.03
2019-04-21T13:48:02.024Z,1017.97
2019-04-21T13:49:03.555Z,1017.97
2019-04-21T13:50:07.162Z,1017.97
2019-04-21T13:51:02.242Z,1017.97
2019-04-21T13:52:03.054Z,1017.93
2019-04-21T13:53:03.073Z,1017.93
2019-04-21T13:54:03.966Z,1017.93
2019-04-21T13:55:05.457Z,1017.93
2019-04-21T13:56:04.597Z,1017.85
2019-04-21T13:57:04.777Z,1017.85
2019-04-21T13:58:02.446Z,1017.85
2019-04-21T13:59:02.581Z,1017.85
2019-04-21T14:00:06.041Z,1017.83
2019-04-21T14:01:03.409Z,1017.83
2019-04-21T14:02:02.993Z,1017.83
2019-04-21T14:03:04.668Z,1017.83
2019-04-21T14:04:02.578Z,1017.72
2019-04-21T14:05:03.372Z,1017.72
2019-04-21T14:06:02.890Z,1017.72
2019-04-21T14:07:02.837Z,1017.72
2019-04-21T14:08:04.973Z,1017.72
2019-04-21T14:09:03.146Z,1017.72
2019-04-21T14:10:11.055Z,1017.72
2019-04-21T14:11:02.126Z,1017.72
2019-04-21T14:12:03.739Z,1017.61
2019-04-21T14:13:04.652Z,1017.61
2019-04-21T14:14:03.025Z,1017.61
2019-04-21T14:15:04.057Z,1017.61
2019-04-21T14:16:02.511Z,1017.51
2019-04-21T14:17:07.064Z,1017.51
2019-04-21T14:18:03.186Z,1017.51
2019-04-21T14:19:03.460Z,1017.51
2019-04-21T14:20:02.303Z,1017.52
2019-04-21T14:21:03.464Z,1017.52
2019-04-21T14:22:03.766Z,1017.52
2019-04-21T14:23:25.488Z,1017.52
2019-04-21T14:24:01.898Z,1017.41
2019-04-21T14:25:03.684Z,1017.41
2019-04-21T14:26:03.769Z,1017.41
2019-04-21T14:27:03.042Z,1017.41
2019-04-21T14:28:02.419Z,1017.42
2019-04-21T14:29:02.381Z,1017.42
2019-04-21T14:30:04.834Z,1017.42
2019-04-21T14:31:04.183Z,1017.42
2019-04-21T14:32:02.428Z,1017.28
2019-04-21T14:33:02.712Z,1017.28
2019-04-21T14:34:02.125Z,1017.28
2019-04-21T14:35:04.788Z,1017.28
2019-04-21T14:36:03.243Z,1017.31
2019-04-21T14:37:02.916Z,1017.31
2019-04-21T14:38:04.737Z,1017.31
2019-04-21T14:39:04.722Z,1017.31
2019-04-21T14:40:16.248Z,1017.32
2019-04-21T14:41:02.646Z,1017.32
2019-04-21T14:42:02.606Z,1017.32
2019-04-21T14:43:03.065Z,1017.32
2019-04-21T14:44:04.673Z,1017.29
2019-04-21T14:45:04.965Z,1017.29
2019-04-21T14:46:03.329Z,1017.29
2019-04-21T14:47:03.432Z,1017.29
2019-04-21T14:48:05.052Z,1017.15
2019-04-21T14:49:05.448Z,1017.15
2019-04-21T14:50:05.103Z,1017.15
2019-04-21T14:51:02.628Z,1017.15
2019-04-21T14:52:03.495Z,1017.22
2019-04-21T14:53:03.643Z,1017.22
2019-04-21T14:54:04.051Z,1017.22
2019-04-21T14:55:04.727Z,1017.22
2019-04-21T14:56:03.597Z,1017.12
2019-04-21T14:57:05.037Z,1017.12